Time;durP1;ratioP1;P1;durP2;ratioP2;P2;SDS_P1;SDS_P2;PMS_P1;PMS_P2;Temp;Humidity;BMP_temperature;BMP_pressure;BME280_temperature;BME280_humidity;BME280_pressure;Samples;Min_cycle;Max_cycle;Signal;HPM_P1;HPM_P2
2022/03/20 00:00:24;;;;;;;;;;;5.60;99.90;;;;;;5073042;28;19921;-79
2022/03/20 00:02:50;;;;;;;;;;;5.50;99.90;;;;;;5074041;28;19913;-79
2022/03/20 00:05:25;;;;;;;;;;;5.50;99.90;;;;;;5074512;28;20399;-80
2022/03/20 00:07:50;;;;;;;;;;;5.40;99.90;;;;;;5073398;28;20526;-81
2022/03/20 00:10:16;;;;;;;;;;;5.40;99.90;;;;;;5072623;28;19948;-81
2022/03/20 00:12:42;;;;;;;;;;;5.30;99.90;;;;;;5074061;28;19913;-81
2022/03/20 00:15:10;;;;;;;;;;;5.30;99.90;;;;;;5074945;28;20019;-80
2022/03/20 00:17:36;;;;;;;;;;;5.30;99.90;;;;;;5067687;28;19916;-80
2022/03/20 00:20:02;;;;;;;;;;;5.40;99.90;;;;;;5074275;28;19996;-80
2022/03/20 00:22:28;;;;;;;;;;;5.50;99.90;;;;;;5068550;28;19947;-80
2022/03/20 00:24:53;;;;;;;;;;;5.40;99.90;;;;;;5073683;28;19912;-80
2022/03/20 00:27:19;;;;;;;;;;;5.30;99.90;;;;;;5072238;28;19913;-79
2022/03/20 00:29:44;;;;;;;;;;;5.40;99.90;;;;;;5073130;28;20254;-78
2022/03/20 00:32:11;;;;;;;;;;;5.30;99.90;;;;;;5074001;28;20338;-81
2022/03/20 00:34:37;;;;;;;;;;;5.30;99.90;;;;;;5068684;28;19936;-79
2022/03/20 00:37:03;;;;;;;;;;;5.20;99.90;;;;;;5074073;28;19916;-79
2022/03/20 00:39:28;;;;;;;;;;;5.20;99.90;;;;;;5073393;28;20303;-80
2022/03/20 00:41:54;;;;;;;;;;;5.20;99.90;;;;;;5082086;28;19908;-80
2022/03/20 00:44:19;;;;;;;;;;;5.10;99.90;;;;;;5075563;28;19916;-80
2022/03/20 00:46:45;;;;;;;;;;;5.10;99.90;;;;;;5078087;28;19948;-79
2022/03/20 00:49:10;;;;;;;;;;;5.10;99.90;;;;;;5075726;28;19944;-79
2022/03/20 00:51:36;;;;;;;;;;;5.00;99.90;;;;;;5073783;28;19986;-80
2022/03/20 00:54:02;;;;;;;;;;;5.00;99.90;;;;;;5072074;28;19908;-80
2022/03/20 00:56:27;;;;;;;;;;;5.00;99.90;;;;;;5075398;28;20292;-79
2022/03/20 00:58:53;;;;;;;;;;;4.90;99.90;;;;;;5077505;28;19908;-80
2022/03/20 01:01:18;;;;;;;;;;;4.90;99.90;;;;;;5090799;28;20392;-79
2022/03/20 01:03:44;;;;;;;;;;;4.80;99.90;;;;;;5077860;28;19909;-78
2022/03/20 01:06:10;;;;;;;;;;;4.80;99.90;;;;;;5073470;28;19967;-79
2022/03/20 01:08:35;;;;;;;;;;;4.80;99.90;;;;;;5075669;28;19912;-80
2022/03/20 01:11:01;;;;;;;;;;;4.80;99.90;;;;;;5074196;28;19909;-79
2022/03/20 01:13:29;;;;;;;;;;;4.80;99.90;;;;;;5075778;28;19916;-78
2022/03/20 01:15:54;;;;;;;;;;;4.80;99.90;;;;;;5075525;28;19915;-79
2022/03/20 01:18:20;;;;;;;;;;;4.70;99.90;;;;;;5077253;28;20281;-79
2022/03/20 01:20:45;;;;;;;;;;;4.70;99.90;;;;;;5075513;28;19916;-79
2022/03/20 01:23:12;;;;;;;;;;;4.70;99.90;;;;;;5075744;28;19913;-79
2022/03/20 01:25:38;;;;;;;;;;;4.70;99.90;;;;;;5070878;28;19935;-80
2022/03/20 01:28:03;;;;;;;;;;;4.70;99.90;;;;;;5076128;28;19973;-80
2022/03/20 01:30:29;;;;;;;;;;;4.70;99.90;;;;;;5090808;28;19912;-79
2022/03/20 01:32:54;;;;;;;;;;;4.60;99.90;;;;;;5076210;28;19958;-79
2022/03/20 01:35:20;;;;;;;;;;;4.50;99.90;;;;;;5073300;28;19912;-80
2022/03/20 01:37:45;;;;;;;;;;;4.50;99.90;;;;;;5074229;28;19942;-79
2022/03/20 01:40:11;;;;;;;;;;;4.50;99.90;;;;;;5075692;28;20380;-79
2022/03/20 01:42:39;;;;;;;;;;;4.50;99.90;;;;;;5074349;28;20295;-79
2022/03/20 01:45:18;;;;;;;;;;;4.50;99.90;;;;;;5074114;28;19958;-80
2022/03/20 01:47:47;;;;;;;;;;;4.40;99.90;;;;;;5075339;28;19916;-79
2022/03/20 01:50:16;;;;;;;;;;;4.40;99.90;;;;;;5073660;28;19920;-79
2022/03/20 01:52:43;;;;;;;;;;;4.40;99.90;;;;;;5069438;28;20000;-80
2022/03/20 01:55:09;;;;;;;;;;;4.30;99.90;;;;;;5073715;28;20027;-78
2022/03/20 01:57:37;;;;;;;;;;;4.30;99.90;;;;;;5091339;28;20504;-79
2022/03/20 02:00:04;;;;;;;;;;;4.30;99.90;;;;;;5075165;28;19913;-79
2022/03/20 02:02:29;;;;;;;;;;;4.20;99.90;;;;;;5070852;28;19954;-79
2022/03/20 02:04:55;;;;;;;;;;;4.20;99.90;;;;;;5073511;28;19913;-79
2022/03/20 02:07:21;;;;;;;;;;;4.20;99.90;;;;;;5073964;28;19917;-80
2022/03/20 02:09:46;;;;;;;;;;;4.20;99.90;;;;;;5077758;28;19916;-80
2022/03/20 02:12:12;;;;;;;;;;;4.20;99.90;;;;;;5072715;28;19942;-79
2022/03/20 02:14:37;;;;;;;;;;;4.20;99.90;;;;;;5075052;28;19924;-80
2022/03/20 02:17:04;;;;;;;;;;;4.20;99.90;;;;;;5073431;28;19924;-80
2022/03/20 02:19:30;;;;;;;;;;;4.20;99.90;;;;;;5076604;28;20280;-79
2022/03/20 02:21:56;;;;;;;;;;;4.10;99.90;;;;;;5075667;28;19939;-79
2022/03/20 02:24:41;;;;;;;;;;;4.20;99.90;;;;;;5073083;28;20352;-79
2022/03/20 02:27:11;;;;;;;;;;;4.20;99.90;;;;;;5071314;28;19913;-80
2022/03/20 02:29:37;;;;;;;;;;;4.30;99.90;;;;;;5069175;28;20253;-79
2022/03/20 02:32:04;;;;;;;;;;;4.40;99.90;;;;;;5074801;28;19989;-80
2022/03/20 02:34:31;;;;;;;;;;;4.50;99.90;;;;;;5073772;28;20387;-79
2022/03/20 02:36:56;;;;;;;;;;;4.40;99.90;;;;;;5075754;28;20009;-80
2022/03/20 02:39:22;;;;;;;;;;;4.40;99.90;;;;;;5073905;28;19916;-79
2022/03/20 02:41:48;;;;;;;;;;;4.40;99.90;;;;;;5078268;28;20308;-78
2022/03/20 02:44:14;;;;;;;;;;;4.40;99.90;;;;;;5093445;28;19913;-79
2022/03/20 02:46:40;;;;;;;;;;;4.40;99.90;;;;;;5075197;28;19966;-78
2022/03/20 02:49:06;;;;;;;;;;;4.40;99.90;;;;;;5075272;28;19942;-81
2022/03/20 02:51:32;;;;;;;;;;;4.50;99.90;;;;;;5088374;28;19912;-80
2022/03/20 02:53:57;;;;;;;;;;;4.50;99.90;;;;;;5075888;28;19912;-80
2022/03/20 02:56:23;;;;;;;;;;;4.60;99.90;;;;;;5073064;28;19928;-81
2022/03/20 02:58:49;;;;;;;;;;;4.60;99.90;;;;;;5074223;28;19924;-79
2022/03/20 03:01:16;;;;;;;;;;;4.60;99.90;;;;;;5068784;28;19913;-79
2022/03/20 03:03:45;;;;;;;;;;;4.60;99.90;;;;;;5073432;28;19912;-81
2022/03/20 03:06:12;;;;;;;;;;;4.60;99.90;;;;;;5072683;28;19921;-79
2022/03/20 03:11:22;;;;;;;;;;;4.60;99.90;;;;;;5071628;28;19931;-80
2022/03/20 03:13:47;;;;;;;;;;;4.60;99.90;;;;;;5072938;28;19912;-79
2022/03/20 03:16:14;;;;;;;;;;;4.60;99.90;;;;;;5071196;28;20005;-79
2022/03/20 03:18:41;;;;;;;;;;;4.60;99.90;;;;;;5073196;28;19923;-78
2022/03/20 03:21:10;;;;;;;;;;;4.60;99.90;;;;;;5072380;28;19916;-79
2022/03/20 03:23:38;;;;;;;;;;;4.50;99.90;;;;;;5072071;28;20284;-80
2022/03/20 03:26:04;;;;;;;;;;;4.50;99.90;;;;;;5071407;28;19912;-82
2022/03/20 03:28:34;;;;;;;;;;;4.50;99.90;;;;;;5088222;28;20371;-78
2022/03/20 03:31:00;;;;;;;;;;;4.50;99.90;;;;;;5072127;28;19924;-79
2022/03/20 03:33:26;;;;;;;;;;;4.50;99.90;;;;;;5071542;28;19916;-80
2022/03/20 03:35:53;;;;;;;;;;;4.50;99.90;;;;;;5073441;28;20308;-79
2022/03/20 03:38:23;;;;;;;;;;;4.40;99.90;;;;;;5070281;28;20395;-78
2022/03/20 03:40:48;;;;;;;;;;;4.40;99.90;;;;;;5068059;28;19919;-79
2022/03/20 03:43:15;;;;;;;;;;;4.40;99.90;;;;;;5070293;28;20364;-80
2022/03/20 03:45:41;;;;;;;;;;;4.40;99.90;;;;;;5072649;28;19996;-81
2022/03/20 03:48:07;;;;;;;;;;;4.30;99.90;;;;;;5078477;28;20315;-80
2022/03/20 03:50:33;;;;;;;;;;;4.20;99.90;;;;;;5072131;28;20012;-79
2022/03/20 03:52:58;;;;;;;;;;;4.20;99.90;;;;;;5071606;28;20354;-79
2022/03/20 03:55:24;;;;;;;;;;;4.20;99.90;;;;;;5071248;28;19927;-78
2022/03/20 03:57:50;;;;;;;;;;;4.20;99.90;;;;;;5073410;28;19917;-80
2022/03/20 04:00:16;;;;;;;;;;;4.10;99.90;;;;;;5072286;28;20418;-78
2022/03/20 04:02:42;;;;;;;;;;;4.10;99.90;;;;;;5072153;28;19939;-80
2022/03/20 04:05:07;;;;;;;;;;;4.10;99.90;;;;;;5072243;28;19913;-80
2022/03/20 04:07:33;;;;;;;;;;;4.00;99.90;;;;;;5070515;28;19923;-79
2022/03/20 04:10:00;;;;;;;;;;;3.90;99.90;;;;;;5072753;28;19939;-79
2022/03/20 04:12:25;;;;;;;;;;;3.90;99.90;;;;;;5070050;28;20162;-79
2022/03/20 04:14:51;;;;;;;;;;;3.90;99.90;;;;;;5072772;28;19965;-79
2022/03/20 04:17:16;;;;;;;;;;;3.80;99.90;;;;;;5072213;28;19919;-78
2022/03/20 04:19:41;;;;;;;;;;;3.80;99.90;;;;;;5066470;28;20471;-79
2022/03/20 04:22:07;;;;;;;;;;;3.80;99.90;;;;;;5070456;28;19916;-79
2022/03/20 04:24:34;;;;;;;;;;;3.70;99.90;;;;;;5071252;28;20015;-79
2022/03/20 04:26:59;;;;;;;;;;;3.60;99.90;;;;;;5072004;28;19923;-80
2022/03/20 04:29:25;;;;;;;;;;;3.50;99.90;;;;;;5071219;28;20010;-78
2022/03/20 04:31:54;;;;;;;;;;;3.50;99.90;;;;;;5071601;28;19913;-78
2022/03/20 04:34:20;;;;;;;;;;;3.40;99.90;;;;;;5070180;28;19927;-80
2022/03/20 04:36:46;;;;;;;;;;;3.40;99.90;;;;;;5066050;28;19917;-80
2022/03/20 04:39:11;;;;;;;;;;;3.40;99.90;;;;;;5086024;28;19920;-79
2022/03/20 04:41:37;;;;;;;;;;;3.40;99.90;;;;;;5070381;28;19912;-80
2022/03/20 04:44:02;;;;;;;;;;;3.40;99.90;;;;;;5071732;28;19917;-80
2022/03/20 04:46:28;;;;;;;;;;;3.40;99.90;;;;;;5071240;28;19990;-78
2022/03/20 04:59:50;;;;;;;;;;;3.20;99.90;;;;;;5068214;28;19919;-79
2022/03/20 05:02:15;;;;;;;;;;;3.20;99.90;;;;;;5070368;28;20245;-81
2022/03/20 05:04:41;;;;;;;;;;;3.20;99.90;;;;;;5073705;28;19916;-78
2022/03/20 05:07:06;;;;;;;;;;;3.20;99.90;;;;;;5072235;28;19924;-79
2022/03/20 05:15:05;;;;;;;;;;;3.10;99.90;;;;;;5073584;28;20008;-79
2022/03/20 05:17:30;;;;;;;;;;;3.10;99.90;;;;;;5070857;28;19963;-80
2022/03/20 05:19:56;;;;;;;;;;;3.10;99.90;;;;;;5072416;28;19912;-79
2022/03/20 05:22:21;;;;;;;;;;;3.00;99.90;;;;;;5070130;28;20388;-80
2022/03/20 05:24:46;;;;;;;;;;;3.00;99.90;;;;;;5072921;28;20327;-80
2022/03/20 05:27:12;;;;;;;;;;;3.00;99.90;;;;;;5074807;28;19935;-80
2022/03/20 05:29:40;;;;;;;;;;;3.00;99.90;;;;;;5089917;28;19916;-78
2022/03/20 05:32:07;;;;;;;;;;;3.10;99.90;;;;;;5074797;28;19934;-79
2022/03/20 05:34:35;;;;;;;;;;;3.20;99.90;;;;;;5073887;28;19952;-78
2022/03/20 05:37:01;;;;;;;;;;;3.20;99.90;;;;;;5074912;28;20343;-79
2022/03/20 05:39:26;;;;;;;;;;;3.30;99.90;;;;;;5074312;28;19912;-79
2022/03/20 05:41:52;;;;;;;;;;;3.40;99.90;;;;;;5072566;28;19923;-80
2022/03/20 05:44:18;;;;;;;;;;;3.40;99.90;;;;;;5075824;28;20495;-81
2022/03/20 05:46:46;;;;;;;;;;;3.50;99.90;;;;;;5076156;28;19946;-80
2022/03/20 05:49:12;;;;;;;;;;;3.50;99.90;;;;;;5077256;28;19919;-82
2022/03/20 05:51:37;;;;;;;;;;;3.60;99.90;;;;;;5074623;28;19920;-80
2022/03/20 05:54:06;;;;;;;;;;;3.70;99.90;;;;;;5076217;28;19913;-80
2022/03/20 05:59:16;;;;;;;;;;;3.90;99.90;;;;;;5078864;28;19935;-79
2022/03/20 06:01:42;;;;;;;;;;;4.00;99.90;;;;;;5075339;28;19916;-79
2022/03/20 06:04:08;;;;;;;;;;;4.00;99.90;;;;;;5074098;28;20310;-78
2022/03/20 06:06:35;;;;;;;;;;;4.10;99.90;;;;;;5072107;28;20400;-79
2022/03/20 06:09:01;;;;;;;;;;;4.10;99.90;;;;;;5069012;28;20357;-78
2022/03/20 06:11:27;;;;;;;;;;;4.20;99.90;;;;;;5075468;28;19919;-79
2022/03/20 06:13:53;;;;;;;;;;;4.20;99.90;;;;;;5071679;28;19912;-82
2022/03/20 06:16:21;;;;;;;;;;;4.30;99.90;;;;;;5073664;28;19916;-79
2022/03/20 06:18:47;;;;;;;;;;;4.30;99.90;;;;;;5074370;28;19912;-79
2022/03/20 06:21:13;;;;;;;;;;;4.30;99.90;;;;;;5075055;28;20023;-79
2022/03/20 06:23:38;;;;;;;;;;;4.40;99.90;;;;;;5073847;28;19913;-79
2022/03/20 06:26:04;;;;;;;;;;;4.40;99.90;;;;;;5085918;28;19948;-80
2022/03/20 06:28:30;;;;;;;;;;;4.50;99.90;;;;;;5067409;28;19912;-80
2022/03/20 06:30:55;;;;;;;;;;;4.70;99.90;;;;;;5074336;28;20003;-79
2022/03/20 06:33:21;;;;;;;;;;;4.80;99.90;;;;;;5070053;28;19919;-79
2022/03/20 06:35:47;;;;;;;;;;;4.90;99.90;;;;;;5073446;28;19920;-78
2022/03/20 06:38:12;;;;;;;;;;;5.00;99.90;;;;;;5073636;28;19916;-78
2022/03/20 06:40:38;;;;;;;;;;;5.30;99.90;;;;;;5075750;28;19912;-79
2022/03/20 06:43:05;;;;;;;;;;;5.50;99.90;;;;;;5066755;28;19920;-79
2022/03/20 06:45:30;;;;;;;;;;;5.90;99.90;;;;;;5073859;28;20377;-79
2022/03/20 06:47:56;;;;;;;;;;;6.10;99.90;;;;;;5070207;28;19931;-79
2022/03/20 06:50:22;;;;;;;;;;;6.10;99.90;;;;;;5072259;28;19916;-80
2022/03/20 06:52:47;;;;;;;;;;;6.00;99.90;;;;;;5072172;28;19938;-79
2022/03/20 06:55:13;;;;;;;;;;;6.10;99.90;;;;;;5074097;28;19952;-79
2022/03/20 06:57:42;;;;;;;;;;;6.00;99.90;;;;;;5066754;28;19917;-79
2022/03/20 07:00:09;;;;;;;;;;;5.80;99.90;;;;;;5089660;28;19917;-79
2022/03/20 07:02:34;;;;;;;;;;;5.60;99.90;;;;;;5070551;28;20770;-79
2022/03/20 07:05:00;;;;;;;;;;;5.60;99.90;;;;;;5072809;28;19995;-79
2022/03/20 07:07:26;;;;;;;;;;;5.80;99.90;;;;;;5074763;28;19916;-79
2022/03/20 07:09:51;;;;;;;;;;;6.30;99.90;;;;;;5075290;28;20384;-79
2022/03/20 07:12:17;;;;;;;;;;;7.00;99.90;;;;;;5073849;28;19938;-80
2022/03/20 07:14:43;;;;;;;;;;;7.90;99.90;;;;;;5073560;28;19923;-79
2022/03/20 07:17:09;;;;;;;;;;;8.80;99.90;;;;;;5072461;28;19920;-80
2022/03/20 07:19:35;;;;;;;;;;;9.90;99.90;;;;;;5071513;28;20870;-80
2022/03/20 07:22:01;;;;;;;;;;;10.50;99.90;;;;;;5072811;28;19920;-79
2022/03/20 07:24:27;;;;;;;;;;;11.80;99.90;;;;;;5072376;28;19936;-79
2022/03/20 07:29:37;;;;;;;;;;;12.30;99.90;;;;;;5072603;28;19927;-79
2022/03/20 07:32:06;;;;;;;;;;;11.80;99.90;;;;;;5072650;28;19913;-79
2022/03/20 07:34:32;;;;;;;;;;;11.10;99.90;;;;;;5070180;28;19922;-79
2022/03/20 07:36:57;;;;;;;;;;;10.10;99.90;;;;;;5070473;28;19988;-79
2022/03/20 07:39:23;;;;;;;;;;;9.90;99.90;;;;;;5074155;28;19913;-79
2022/03/20 07:41:48;;;;;;;;;;;11.60;99.90;;;;;;5074457;28;19913;-80
2022/03/20 07:44:14;;;;;;;;;;;13.10;99.90;;;;;;5075753;28;20312;-80
2022/03/20 07:46:40;;;;;;;;;;;13.50;99.90;;;;;;5069703;28;19952;-80
2022/03/20 07:49:07;;;;;;;;;;;15.40;99.90;;;;;;5072423;28;19912;-80
2022/03/20 07:51:34;;;;;;;;;;;15.50;99.90;;;;;;5073386;28;20332;-80
2022/03/20 07:53:59;;;;;;;;;;;16.60;99.90;;;;;;5074139;28;19912;-81
2022/03/20 07:56:25;;;;;;;;;;;18.00;99.90;;;;;;5071527;28;19912;-81
2022/03/20 07:58:51;;;;;;;;;;;19.40;99.90;;;;;;5070751;28;19921;-81
2022/03/20 08:01:17;;;;;;;;;;;20.40;99.90;;;;;;5066291;28;19919;-81
2022/03/20 08:03:42;;;;;;;;;;;19.90;99.90;;;;;;5072039;28;20594;-78
2022/03/20 08:06:08;;;;;;;;;;;19.70;99.90;;;;;;5069569;28;19959;-78
2022/03/20 08:08:36;;;;;;;;;;;18.90;99.90;;;;;;5069475;28;19919;-80
2022/03/20 08:11:03;;;;;;;;;;;17.60;99.90;;;;;;5071202;28;21571;-79
2022/03/20 08:13:30;;;;;;;;;;;17.10;99.90;;;;;;5069524;28;19912;-79
2022/03/20 08:15:56;;;;;;;;;;;15.60;99.90;;;;;;5072125;28;20333;-79
2022/03/20 08:18:22;;;;;;;;;;;14.30;99.90;;;;;;5068995;28;19963;-81
2022/03/20 08:20:47;;;;;;;;;;;15.20;99.90;;;;;;5072741;28;19923;-79
2022/03/20 08:23:13;;;;;;;;;;;16.20;99.90;;;;;;5070677;28;19913;-79
2022/03/20 08:25:38;;;;;;;;;;;15.10;99.90;;;;;;5069304;28;19912;-79
2022/03/20 08:28:05;;;;;;;;;;;15.00;99.90;;;;;;5071567;28;19923;-79
2022/03/20 08:30:31;;;;;;;;;;;15.70;99.90;;;;;;5071386;28;19954;-80
2022/03/20 08:32:57;;;;;;;;;;;15.80;99.90;;;;;;5070001;28;19912;-79
2022/03/20 08:35:22;;;;;;;;;;;14.70;99.90;;;;;;5068695;28;19999;-78
2022/03/20 08:37:49;;;;;;;;;;;13.00;99.90;;;;;;5076452;28;19961;-79
2022/03/20 08:40:16;;;;;;;;;;;12.30;99.90;;;;;;5075756;28;19908;-79
2022/03/20 08:42:47;;;;;;;;;;;12.10;99.90;;;;;;5069692;28;19975;-80
2022/03/20 08:45:12;;;;;;;;;;;11.80;99.90;;;;;;5079007;28;19921;-79
2022/03/20 08:47:38;;;;;;;;;;;11.10;99.90;;;;;;5074879;28;20035;-79
2022/03/20 08:50:04;;;;;;;;;;;11.00;99.90;;;;;;5089850;28;19912;-80
2022/03/20 08:52:30;;;;;;;;;;;10.40;99.90;;;;;;5067502;28;19913;-79
2022/03/20 08:54:56;;;;;;;;;;;10.40;99.90;;;;;;5069925;28;19912;-78
2022/03/20 08:57:25;;;;;;;;;;;10.30;99.90;;;;;;5070461;28;20003;-78
2022/03/20 08:59:50;;;;;;;;;;;10.30;99.90;;;;;;5073533;28;19912;-78
2022/03/20 09:02:16;;;;;;;;;;;10.10;99.90;;;;;;5073072;28;19966;-77
2022/03/20 09:04:41;;;;;;;;;;;9.80;99.90;;;;;;5081707;28;19916;-79
2022/03/20 09:07:07;;;;;;;;;;;9.70;99.90;;;;;;5078178;28;19916;-79
2022/03/20 09:09:32;;;;;;;;;;;9.60;99.90;;;;;;5085390;28;19912;-79
2022/03/20 09:11:57;;;;;;;;;;;9.30;99.90;;;;;;5082430;28;19912;-78
2022/03/20 09:14:23;;;;;;;;;;;9.10;99.90;;;;;;5076735;28;19942;-79
2022/03/20 09:19:32;;;;;;;;;;;8.60;99.90;;;;;;5078384;28;19958;-78
2022/03/20 09:21:58;;;;;;;;;;;8.50;99.90;;;;;;5075937;28;19917;-79
2022/03/20 09:24:23;;;;;;;;;;;8.40;99.90;;;;;;5075708;28;20294;-79
2022/03/20 09:26:49;;;;;;;;;;;8.40;99.90;;;;;;5088753;28;19916;-78
2022/03/20 09:29:16;;;;;;;;;;;8.30;99.90;;;;;;5073347;28;19920;-78
2022/03/20 09:31:41;;;;;;;;;;;8.20;99.90;;;;;;5084660;28;19912;-78
2022/03/20 09:34:07;;;;;;;;;;;8.20;99.90;;;;;;5076986;28;19915;-78
2022/03/20 09:36:32;;;;;;;;;;;8.10;99.90;;;;;;5076081;28;19913;-79
2022/03/20 09:38:58;;;;;;;;;;;8.20;99.90;;;;;;5073252;28;19995;-78
2022/03/20 09:41:30;;;;;;;;;;;8.20;99.90;;;;;;5070611;28;20420;-79
2022/03/20 09:43:55;;;;;;;;;;;8.20;99.90;;;;;;5072503;28;19913;-78
2022/03/20 09:46:21;;;;;;;;;;;8.10;99.90;;;;;;5073526;28;20297;-78
2022/03/20 09:48:46;;;;;;;;;;;8.20;99.90;;;;;;5074766;28;20407;-78
2022/03/20 09:51:12;;;;;;;;;;;8.40;99.90;;;;;;5071635;28;20065;-78
2022/03/20 09:53:38;;;;;;;;;;;8.50;99.90;;;;;;5089982;28;19912;-79
2022/03/20 09:56:06;;;;;;;;;;;8.60;99.90;;;;;;5070333;28;19912;-79
2022/03/20 09:58:31;;;;;;;;;;;8.80;99.90;;;;;;5070903;28;19966;-79
2022/03/20 10:00:57;;;;;;;;;;;9.00;99.90;;;;;;5072225;28;20361;-79
2022/03/20 10:03:23;;;;;;;;;;;9.20;99.90;;;;;;5068108;28;19991;-79
2022/03/20 10:06:17;;;;;;;;;;;9.40;99.90;;;;;;5087794;28;19943;-78
2022/03/20 10:09:04;;;;;;;;;;;9.80;99.90;;;;;;5072579;28;19916;-79
2022/03/20 10:11:30;;;;;;;;;;;10.20;99.90;;;;;;5084904;28;19919;-79
2022/03/20 10:14:15;;;;;;;;;;;10.50;99.90;;;;;;5074490;28;20331;-79
2022/03/20 10:16:53;;;;;;;;;;;10.70;99.90;;;;;;5072918;28;19913;-79
2022/03/20 10:19:21;;;;;;;;;;;10.80;99.90;;;;;;5070118;28;19917;-79
2022/03/20 10:21:48;;;;;;;;;;;11.00;99.90;;;;;;5073696;28;20021;-78
2022/03/20 10:24:17;;;;;;;;;;;10.70;99.90;;;;;;5071182;28;19962;-80
2022/03/20 10:26:43;;;;;;;;;;;10.60;99.90;;;;;;5069422;28;19917;-79
2022/03/20 10:29:15;;;;;;;;;;;11.00;99.90;;;;;;5071885;28;20262;-79
2022/03/20 10:31:52;;;;;;;;;;;11.50;99.90;;;;;;5069268;28;19966;-79
2022/03/20 10:34:18;;;;;;;;;;;11.50;99.90;;;;;;5064523;28;20376;-78
2022/03/20 10:36:44;;;;;;;;;;;12.10;99.90;;;;;;5075431;28;19913;-79
2022/03/20 10:39:11;;;;;;;;;;;12.20;99.90;;;;;;5074286;28;19973;-80
2022/03/20 10:41:38;;;;;;;;;;;12.50;99.90;;;;;;5069835;28;19913;-79
2022/03/20 10:44:18;;;;;;;;;;;12.80;99.90;;;;;;5085382;28;20291;-79
2022/03/20 10:46:54;;;;;;;;;;;12.90;99.90;;;;;;5070433;28;19916;-79
2022/03/20 10:49:20;;;;;;;;;;;12.80;99.90;;;;;;5068066;28;20338;-79
2022/03/20 10:51:59;;;;;;;;;;;12.70;99.90;;;;;;5072721;28;19945;-78
2022/03/20 10:54:37;;;;;;;;;;;12.50;99.90;;;;;;5068758;28;19913;-79
2022/03/20 10:57:05;;;;;;;;;;;12.20;99.90;;;;;;5072833;28;19912;-79
2022/03/20 10:59:30;;;;;;;;;;;11.90;99.90;;;;;;5070990;28;19913;-79
2022/03/20 11:01:57;;;;;;;;;;;12.00;99.90;;;;;;5072431;28;20295;-79
2022/03/20 11:04:23;;;;;;;;;;;12.20;99.90;;;;;;5073603;28;20001;-79
2022/03/20 11:06:49;;;;;;;;;;;12.60;99.90;;;;;;5071175;28;19960;-79
2022/03/20 11:09:15;;;;;;;;;;;12.90;99.90;;;;;;5074064;28;19919;-79
2022/03/20 11:11:44;;;;;;;;;;;13.50;99.90;;;;;;5068153;28;19920;-79
2022/03/20 11:14:12;;;;;;;;;;;13.40;99.90;;;;;;5070486;28;20361;-80
2022/03/20 11:16:38;;;;;;;;;;;13.30;99.90;;;;;;5082443;28;19913;-80
2022/03/20 11:19:05;;;;;;;;;;;13.10;99.90;;;;;;5072328;28;19974;-79
2022/03/20 11:21:33;;;;;;;;;;;13.10;99.90;;;;;;5070269;28;19916;-81
2022/03/20 11:23:59;;;;;;;;;;;13.00;99.90;;;;;;5068400;28;20341;-79
2022/03/20 11:26:25;;;;;;;;;;;12.90;99.90;;;;;;5081142;28;19960;-79
2022/03/20 11:28:54;;;;;;;;;;;12.50;99.90;;;;;;5070699;28;19916;-80
2022/03/20 11:31:20;;;;;;;;;;;12.80;99.90;;;;;;5073027;28;19935;-80
2022/03/20 11:33:47;;;;;;;;;;;12.90;99.90;;;;;;5070140;28;19912;-80
2022/03/20 11:36:12;;;;;;;;;;;12.80;99.90;;;;;;5085263;28;19927;-81
2022/03/20 11:38:38;;;;;;;;;;;12.60;99.90;;;;;;5066313;28;19913;-80
2022/03/20 11:41:17;;;;;;;;;;;12.60;99.90;;;;;;5070660;28;19913;-80
2022/03/20 11:43:44;;;;;;;;;;;12.50;99.90;;;;;;5067878;28;19912;-79
2022/03/20 11:46:32;;;;;;;;;;;12.50;99.90;;;;;;5070970;28;19919;-81
2022/03/20 11:49:12;;;;;;;;;;;12.30;99.90;;;;;;5069060;28;19921;-79
2022/03/20 11:51:51;;;;;;;;;;;12.10;99.90;;;;;;5085704;28;20479;-79
2022/03/20 11:54:17;;;;;;;;;;;11.60;99.90;;;;;;5068901;28;19961;-80
2022/03/20 11:56:42;;;;;;;;;;;11.50;99.90;;;;;;5075002;28;19916;-80
2022/03/20 11:59:28;;;;;;;;;;;11.40;99.90;;;;;;5063776;28;19923;-80
2022/03/20 12:01:58;;;;;;;;;;;11.30;99.90;;;;;;5067480;28;19928;-80
2022/03/20 12:04:25;;;;;;;;;;;11.40;99.90;;;;;;5072495;28;19935;-81
2022/03/20 12:07:06;;;;;;;;;;;11.40;99.90;;;;;;5075547;28;19922;-80
2022/03/20 12:09:48;;;;;;;;;;;11.30;99.90;;;;;;5072698;28;19920;-81
2022/03/20 12:12:31;;;;;;;;;;;11.10;99.90;;;;;;5069206;28;19940;-82
2022/03/20 12:14:57;;;;;;;;;;;10.80;99.90;;;;;;5070322;28;19970;-80
2022/03/20 12:17:23;;;;;;;;;;;10.50;99.90;;;;;;5073315;28;19912;-81
2022/03/20 12:19:49;;;;;;;;;;;10.20;99.90;;;;;;5079338;28;19913;-81
2022/03/20 12:22:23;;;;;;;;;;;9.90;99.90;;;;;;5077382;28;19912;-80
2022/03/20 12:24:51;;;;;;;;;;;9.70;99.90;;;;;;5071121;28;19959;-81
2022/03/20 12:27:23;;;;;;;;;;;9.70;1.00;;;;;;5066539;28;20012;-80
2022/03/20 12:30:10;;;;;;;;;;;9.70;1.00;;;;;;5092202;28;19959;-80
2022/03/20 12:32:47;;;;;;;;;;;9.70;99.90;;;;;;5065142;28;19916;-80
2022/03/20 12:35:17;;;;;;;;;;;9.60;99.90;;;;;;5070232;28;19920;-80
2022/03/20 12:37:44;;;;;;;;;;;9.70;99.90;;;;;;5075576;28;19912;-80
2022/03/20 12:40:35;;;;;;;;;;;9.80;99.90;;;;;;5072779;28;20365;-80
2022/03/20 12:43:03;;;;;;;;;;;9.90;99.90;;;;;;5071321;28;19974;-80
2022/03/20 12:45:30;;;;;;;;;;;10.10;99.90;;;;;;5076895;28;19916;-80
2022/03/20 12:48:00;;;;;;;;;;;10.00;99.90;;;;;;5079719;28;20019;-80
2022/03/20 12:50:27;;;;;;;;;;;10.10;99.90;;;;;;5072686;28;20335;-79
2022/03/20 12:52:54;;;;;;;;;;;10.20;99.90;;;;;;5072685;28;19966;-80
2022/03/20 12:55:24;;;;;;;;;;;10.40;99.90;;;;;;5072841;28;19916;-79
2022/03/20 12:57:49;;;;;;;;;;;10.70;99.90;;;;;;5063338;28;19920;-79
2022/03/20 13:00:17;;;;;;;;;;;10.90;99.90;;;;;;5069420;28;19912;-79
2022/03/20 13:03:01;;;;;;;;;;;11.00;99.90;;;;;;5074545;28;19912;-80
2022/03/20 13:05:28;;;;;;;;;;;11.00;99.90;;;;;;5073222;28;19957;-80
2022/03/20 13:07:53;;;;;;;;;;;11.10;99.90;;;;;;5073791;28;19963;-80
2022/03/20 13:10:23;;;;;;;;;;;11.20;99.90;;;;;;5074067;28;19913;-80
2022/03/20 13:12:53;;;;;;;;;;;11.20;99.90;;;;;;5071876;28;19912;-80
2022/03/20 13:15:25;;;;;;;;;;;11.30;99.90;;;;;;5070617;28;19912;-79
2022/03/20 13:17:51;;;;;;;;;;;11.40;99.90;;;;;;5077467;28;19920;-79
2022/03/20 13:20:21;;;;;;;;;;;11.40;99.90;;;;;;5071285;28;19912;-80
2022/03/20 13:22:47;;;;;;;;;;;11.50;99.90;;;;;;5066218;28;19919;-80
2022/03/20 13:25:13;;;;;;;;;;;11.60;99.90;;;;;;5074500;28;20424;-80
2022/03/20 13:27:39;;;;;;;;;;;11.60;99.90;;;;;;5072885;28;19963;-81
2022/03/20 13:30:05;;;;;;;;;;;11.70;99.90;;;;;;5081379;28;19913;-80
2022/03/20 13:32:31;;;;;;;;;;;11.80;99.90;;;;;;5082803;28;20372;-80
2022/03/20 13:34:56;;;;;;;;;;;11.80;99.90;;;;;;5073848;28;20434;-81
2022/03/20 13:37:22;;;;;;;;;;;11.90;99.90;;;;;;5076078;28;20288;-81
2022/03/20 13:39:51;;;;;;;;;;;11.90;99.90;;;;;;5072789;28;19947;-81
2022/03/20 13:42:18;;;;;;;;;;;12.00;99.90;;;;;;5076369;28;19952;-80
2022/03/20 13:44:43;;;;;;;;;;;12.10;99.90;;;;;;5075206;28;19966;-80
2022/03/20 13:47:10;;;;;;;;;;;12.20;99.90;;;;;;5089803;28;19920;-81
2022/03/20 13:49:35;;;;;;;;;;;12.50;99.90;;;;;;5074143;28;19920;-80
2022/03/20 13:52:01;;;;;;;;;;;12.90;99.90;;;;;;5072831;28;19916;-80
2022/03/20 13:54:26;;;;;;;;;;;13.40;99.90;;;;;;5074323;28;20281;-80
2022/03/20 13:57:11;;;;;;;;;;;14.50;99.90;;;;;;5075824;28;20265;-80
2022/03/20 13:59:47;;;;;;;;;;;15.20;99.90;;;;;;5068428;28;20015;-81
2022/03/20 14:02:12;;;;;;;;;;;16.10;99.90;;;;;;5074566;28;20002;-80
2022/03/20 14:04:38;;;;;;;;;;;16.30;99.90;;;;;;5071178;28;19966;-80
2022/03/20 14:07:04;;;;;;;;;;;16.80;99.90;;;;;;5072404;28;19917;-80
2022/03/20 14:09:34;;;;;;;;;;;17.00;99.90;;;;;;5069869;28;19912;-80
2022/03/20 14:11:59;;;;;;;;;;;16.60;99.90;;;;;;5073498;28;19919;-80
2022/03/20 14:14:47;;;;;;;;;;;16.90;99.90;;;;;;5079578;28;19913;-80
2022/03/20 14:17:13;;;;;;;;;;;16.80;99.90;;;;;;5087065;28;19924;-80
2022/03/20 14:19:47;;;;;;;;;;;16.70;99.90;;;;;;5076842;28;19912;-79
2022/03/20 14:22:13;;;;;;;;;;;16.40;99.90;;;;;;5074489;28;19924;-79
2022/03/20 14:24:53;;;;;;;;;;;16.40;99.90;;;;;;5075765;28;20007;-79
2022/03/20 14:27:26;;;;;;;;;;;16.50;99.90;;;;;;5073116;28;19948;-79
2022/03/20 14:41:17;;;;;;;;;;;17.10;99.90;;;;;;5070107;28;20049;-79
2022/03/20 14:43:43;;;;;;;;;;;17.20;99.90;;;;;;5074162;28;19923;-81
2022/03/20 14:46:08;;;;;;;;;;;17.30;99.90;;;;;;5087033;28;19913;-80
2022/03/20 14:48:34;;;;;;;;;;;17.20;99.90;;;;;;5074144;28;19916;-80
2022/03/20 14:51:00;;;;;;;;;;;16.70;99.90;;;;;;5070605;28;19912;-80
2022/03/20 14:53:32;;;;;;;;;;;16.20;99.90;;;;;;5067143;28;19913;-80
2022/03/20 14:55:58;;;;;;;;;;;15.60;99.90;;;;;;5066343;28;19919;-79
2022/03/20 14:58:24;;;;;;;;;;;15.20;99.90;;;;;;5073315;28;19913;-79
2022/03/20 15:00:49;;;;;;;;;;;15.00;99.90;;;;;;5070192;28;20266;-80
2022/03/20 15:03:15;;;;;;;;;;;14.70;99.90;;;;;;5072707;28;19913;-80